Vyhledávání knížek ve školní knihovně SVZS Kladno

Zadejte hledané slovo (autor, dílo, část názvu a pod.)

Vypsány výsledky od: 8551 až 8600. Celkem nalezeno 9318 výsledků.

č. Poř.č. Signatura Spisovatel Název knihy Počet svazků Nakladatel Rok vyd. Cena Jazyk Číslo dokl. Aktualizováno
8552 17327 611 Dylevský Ivan Základy anatomie 1 Triton (Praha) 2006 399.00 cze 19.10.2010
8553 17328 612.3 Schleif Thilo Histaminová intolerance 1 Galén (Praha) 2009 200.00 cze 19.10.2010
8554 17329 15.37 Goetz, Uhlíková ADHD, porucha pozornosti... 1 Galén (Praha) 2009 190.00 cze 19.10.2010
8555 17330 54 Pumpr, Adamec Chemie - základy přírodovědného vzdělává 1 Fortuna (Praha) 2008 50.00 cze 04.01.2011
8556 17331 802.0 Oxenden, Latham- Koenig New English File - Teacher´s Book + CD 1 Oxford University Press () 2007 0.00 eng 04.01.2011
8557 17332 802.0 Oxenden, ..... New English File -Workbook +CD 1 Oxford University Press () 2005 0.00 eng ? 04.01.2011
8558 17333 802.0 Oxenden, ..... New English File - Student´s Book 1 Oxford University Press () 2008 0.00 eng 04.01.2011
8559 17334 802.0 Oxenden, .... New English File - Elementary Teacher´s 1 Oxford University Press () 2007 0.00 eng 04.01.2011
8560 17336 802.0 Oxenden, .... New English File, Elementary Student´s 1 Oxford University Press () 2007 0.00 eng 05.01.2011
8561 17338 802.0 Oxenden, ... New English File, Elementary Workbook + 1 Oxford University Press () 2004 0.00 eng 10.01.2011
8562 17339 943.7 Svitáková Jindra Osudové roky české státnosti 1 Asociace nositelů legionářských tradic, (Praha) 2010 104.00 cze 253/2010 10.01.2011
8563 17340 943.7 Svitáková Jitka Osudové roky české státnosti 1 Asociace nositelů legionářských tradic (Praha) 2010 104.00 cze 10.01.2011
8564 17431 34 /31 Hajzlerová Irena Spisová služba ve školské praxi 1 Pavera Antonín - Paris (Karviná) 2010 300.00 cze 10.01.2011
8565 17342 616.08 Tóthová Valerie Zabezpečení efekt. péče o vietnam. a čín 1 Triton (Praha) 2010 299.00 cze 10.01.2011
8566 17343 616.006/ 616.08 Anne-Mei Theová Paliativní péče a komunikace 1 Společnost pro odbornou literaturu (Brno) 2007 295.00 cze 10.01.2011
8567 17344 616.006/616.08 Payneová, Seymourová, Ingletonová Principy a praxe paliativní péče 1 Společnost pro odbornou literaturu (Brno) 2007 695.00 cze 447/2010 10.01.2011
8568 17345 616.08 Špatenková, Králová Základní otázky komunikace 1 Galén (Praha) 2009 190.00 cze 10.01.2011
8569 17346 616.03 Češka Richard a kol. INTERNA 1 Triton (Praha) 2010 1499.00 cze 10.01.2011
8570 17347 15 Goetz, Uhlíková ADHD porucha pozornosti s hyperaktivitou 1 Galén (Praha) 2009 190.00 cze 10.01.2011
8571 17348 616.89 Platznerová A. Sebepoškozování.... 1 Galén (Praha) 2009 250.00 cze 10.01.2011
8572 17349 376 Kutálková D. Průvodce vývojem dětské řeči 1 Galén (Praha) 2009 220.00 cze 10.01.2011
8573 17350 15 Drtílková, Šerý Hyperkinetická porucha ADHD 1 galén (Praha) 2007 390.00 cze 10.01.2011
8574 17351 17/ 616.08 Haškovcová Informovaný souhlas, proč a jak 1 Galén (Praha) 2007 190.00 cze 10.01.2011
8575 17352 616.08 Assdullah Zharfbin Lékařem v Saudské Arabii 1 Galén (Praha) 2008 150.00 cze 10.01.2011
8576 17353 616.053.9 Haškovcová Helena Fenomén stáří 1 Havlíček BRAIN TEAM (Praha) 2010 420.00 cze 10.01.2011
8577 17354 57 Kočárek Ed. Biologie člověka 1 1 Scientia (Praha) 2010 397.00 cze 10.01.2011
8578 17355 57 Závodská Radka Biologie buněk 1 Scientia (Praha) 2006 315.00 cze 10.01.2011
8579 17356 57 Kočárek Ed. Genetika 1 Scientia (Praha) 2008 368.00 cze 10.01.2011
8580 17357 57 Kočárek Ed. Genetika 1 Scientia (Praha) 2008 368.00 cze 10.01.2011
8581 17358 57 Kočárek Ed. Genetika 1 Scientia (Praha) 2008 368.00 cze 10.01.2011
8582 17359 57 Kočárek Ed. Genetika 1 Scientia (Praha) 2008 368.00 cze 10.01.2011
8583 17360 54 Fikr Jaroslav Jak porozumíme chem. vzorcům a rovnicím 1 Barrister a Principal, Martínkova 5, Brn (Brno) 2010 181.00 cze 18.01.2011
8584 17361 54 Fikr Jaroslav Jak porozumíme chem. výpočtům - díl 2 1 Barrister a Principal (Brno) 2010 163.00 cze 18.01.2011
8585 17362 808.2 Autorský kolektiv Lingea Velký slovník R-Č, Č-R 1 Lingea s.r.o (Brno) 2009 1082.00 rus 18.01.2011
8586 17363 808.2 Autorský kolektiv Lingea Šikovný slovník R-Č, Č-R 1 Lingea s.r.o (Brno) 2009 208.00 rus 317/2010 18.01.2011
8587 17364 808.2 Autorský kolektiv Šikovný slovník R-Č, Č-R 1 Lingea s.r.o (Brno) 2009 208.00 rus 18.01.2011
8588 17365 808.2 Autorský kolektiv Šikovný slovník R-Č, Č-R 1 Lingea s.r.o. (Brno) 2009 208.00 rus 19.01.2011
8589 17366 808.2 Autorský kolektiv Šikovný slovník R-Č, Č-R 1 Lingea s.r.o. (Brno) 2009 208.00 rus 19.01.2011
8590 17367 808.2 Autorský kolektiv Šikovný slovník R-Č, Č-R 1 Lingea s.r.o. (Brno) 2009 208.00 rus 19.01.2011
8591 17368 808.2 Autorský kolektiv Šikovný slovník R-Č, Č-R 1 Lingea s.r.o. (Brno) 2009 208.00 rus 19.01.2011
8592 17369 808.2 Autorský kolektiv Šikovný slovník R-Č, Č-R 1 Lingea s.r.o. (Brno) 2009 208.00 rus 19.01.2011
8593 17370 808.2 Autorský kolektiv Šikovný slovník R-Č, Č-R 1 Lingea s.r.o. (Brno) 2009 208.00 rus 19.01.2011
8594 17371 808.2 Autorský kolektiv Šikovný slovník R-Č, Č-R 1 Lingea s.r.o. (Brno) 2009 208.00 rus 19.01.2011
8595 17372 808.2 Autorský kolektiv Šikovný slovník R-Č, Č-R 1 Lingea s.r.o. (Brno) 2009 208.00 rus 19.01.2011
8596 17375 808.2 Autorský kolektiv Šikovný slovník R-Č, Č-R 1 Lignea s.r.o. (Brno) 2009 208.00 rus 19.01.2011
8597 17376 808.2 Autorský kolektiv Šikovný slovník R-Č, Č-R 1 Lingea s.r.o. (Brno) 2009 208.00 rus 19.01.2011
8598 17374 808.2 Autorský kolektiv Šikovný slovník R Č, Č- R 1 Lingea s.r.o. (Brno) 2009 208.00 rus 317/2010 19.01.2011
8599 17377 808.2 Autorský kolektiv Šikovný slovník R-Č, Č-R 1 Lingea s.r.o. (Brno) 2009 208.00 rus 19.01.2011
8600 17378 808.2 Jelínek, Alexejeva... Raduga 4, příručka učitele 1 Fraus (Plzeň) 2010 272.00 rus 09.02.2011
8601 17379 808.2 Jelínek, Alexejeva... Raduga 4, učebnice ruštiny 1 Fraus (Plzeň) 2010 208.00 rus 09.02.2011
123456789101112131415161718192021222324252627282930313233343536373839404142434445464748495051525354555657585960616263646566676869707172737475767778798081828384858687888990919293949596979899100101102103104105106107108109110111112113114115116117118119120121122123124125126127128129130131132133134135136137138139140141142143144145146147148149150151152153154155156157158159160161162163164165166167168169170171172173174175176177178179180181182183184185186187Všechny